sensor_id;sensor_type;location;lat;lon;timestamp;P1;durP1;ratioP1;P2;durP2;ratioP2
14094;SDS011;18096;48.142;16.290;2023-12-07T00:01:40;6.13;;;4.50;;
14094;SDS011;18096;48.142;16.290;2023-12-07T00:04:05;8.20;;;5.20;;
14094;SDS011;18096;48.142;16.290;2023-12-07T00:06:31;7.30;;;4.38;;
14094;SDS011;18096;48.142;16.290;2023-12-07T00:08:57;6.22;;;4.95;;
14094;SDS011;18096;48.142;16.290;2023-12-07T00:11:23;6.80;;;5.03;;
14094;SDS011;18096;48.142;16.290;2023-12-07T00:13:49;8.50;;;5.40;;
14094;SDS011;18096;48.142;16.290;2023-12-07T00:16:15;6.13;;;4.72;;
14094;SDS011;18096;48.142;16.290;2023-12-07T00:18:40;6.30;;;4.77;;
14094;SDS011;18096;48.142;16.290;2023-12-07T00:21:09;4.60;;;4.10;;
14094;SDS011;18096;48.142;16.290;2023-12-07T00:23:35;5.97;;;4.70;;
14094;SDS011;18096;48.142;16.290;2023-12-07T00:26:02;7.10;;;5.03;;
14094;SDS011;18096;48.142;16.290;2023-12-07T00:28:28;8.43;;;5.05;;
14094;SDS011;18096;48.142;16.290;2023-12-07T00:30:54;6.35;;;4.80;;
14094;SDS011;18096;48.142;16.290;2023-12-07T00:33:20;5.40;;;4.68;;
14094;SDS011;18096;48.142;16.290;2023-12-07T00:35:46;9.45;;;5.43;;
14094;SDS011;18096;48.142;16.290;2023-12-07T00:38:12;6.60;;;5.00;;
14094;SDS011;18096;48.142;16.290;2023-12-07T00:40:38;6.20;;;5.23;;
14094;SDS011;18096;48.142;16.290;2023-12-07T00:43:05;10.00;;;4.85;;
14094;SDS011;18096;48.142;16.290;2023-12-07T00:45:31;7.35;;;5.47;;
14094;SDS011;18096;48.142;16.290;2023-12-07T00:47:57;8.68;;;5.50;;
14094;SDS011;18096;48.142;16.290;2023-12-07T00:50:23;7.25;;;5.70;;
14094;SDS011;18096;48.142;16.290;2023-12-07T00:52:49;5.70;;;5.00;;
14094;SDS011;18096;48.142;16.290;2023-12-07T00:55:14;5.70;;;4.50;;
14094;SDS011;18096;48.142;16.290;2023-12-07T00:57:40;7.53;;;5.45;;
14094;SDS011;18096;48.142;16.290;2023-12-07T01:00:06;7.35;;;5.40;;
14094;SDS011;18096;48.142;16.290;2023-12-07T01:02:33;6.57;;;5.07;;
14094;SDS011;18096;48.142;16.290;2023-12-07T01:04:59;6.65;;;4.90;;
14094;SDS011;18096;48.142;16.290;2023-12-07T01:07:24;5.82;;;4.90;;
14094;SDS011;18096;48.142;16.290;2023-12-07T01:09:50;5.45;;;4.88;;
14094;SDS011;18096;48.142;16.290;2023-12-07T01:12:16;6.65;;;5.18;;
14094;SDS011;18096;48.142;16.290;2023-12-07T01:14:41;6.47;;;4.87;;
14094;SDS011;18096;48.142;16.290;2023-12-07T01:17:07;6.13;;;5.20;;
14094;SDS011;18096;48.142;16.290;2023-12-07T01:19:32;6.50;;;4.60;;
14094;SDS011;18096;48.142;16.290;2023-12-07T01:21:59;6.18;;;4.50;;
14094;SDS011;18096;48.142;16.290;2023-12-07T01:24:24;5.93;;;4.40;;
14094;SDS011;18096;48.142;16.290;2023-12-07T01:26:50;7.78;;;5.03;;
14094;SDS011;18096;48.142;16.290;2023-12-07T01:29:16;6.00;;;4.68;;
14094;SDS011;18096;48.142;16.290;2023-12-07T01:31:42;4.95;;;4.25;;
14094;SDS011;18096;48.142;16.290;2023-12-07T01:34:08;7.17;;;4.20;;
14094;SDS011;18096;48.142;16.290;2023-12-07T01:36:34;5.77;;;5.10;;
14094;SDS011;18096;48.142;16.290;2023-12-07T01:39:00;5.90;;;4.90;;
14094;SDS011;18096;48.142;16.290;2023-12-07T01:41:25;4.82;;;4.32;;
14094;SDS011;18096;48.142;16.290;2023-12-07T01:43:51;5.85;;;5.15;;
14094;SDS011;18096;48.142;16.290;2023-12-07T01:46:17;6.80;;;4.80;;
14094;SDS011;18096;48.142;16.290;2023-12-07T01:48:43;6.20;;;4.50;;
14094;SDS011;18096;48.142;16.290;2023-12-07T01:51:09;6.90;;;4.50;;
14094;SDS011;18096;48.142;16.290;2023-12-07T01:53:37;5.07;;;4.50;;
14094;SDS011;18096;48.142;16.290;2023-12-07T01:56:04;5.32;;;4.57;;
14094;SDS011;18096;48.142;16.290;2023-12-07T01:58:30;6.97;;;5.05;;
14094;SDS011;18096;48.142;16.290;2023-12-07T02:00:56;7.97;;;5.35;;
14094;SDS011;18096;48.142;16.290;2023-12-07T02:03:22;7.37;;;5.30;;
14094;SDS011;18096;48.142;16.290;2023-12-07T02:05:49;6.03;;;4.65;;
14094;SDS011;18096;48.142;16.290;2023-12-07T02:08:16;9.93;;;5.20;;
14094;SDS011;18096;48.142;16.290;2023-12-07T02:10:41;6.85;;;5.80;;
14094;SDS011;18096;48.142;16.290;2023-12-07T02:13:07;5.07;;;4.68;;
14094;SDS011;18096;48.142;16.290;2023-12-07T02:15:33;6.88;;;5.80;;
14094;SDS011;18096;48.142;16.290;2023-12-07T02:21:12;7.70;;;5.40;;
14094;SDS011;18096;48.142;16.290;2023-12-07T02:23:43;7.07;;;5.38;;
14094;SDS011;18096;48.142;16.290;2023-12-07T02:26:12;7.27;;;4.77;;
14094;SDS011;18096;48.142;16.290;2023-12-07T02:28:41;9.70;;;6.18;;
14094;SDS011;18096;48.142;16.290;2023-12-07T02:31:07;7.75;;;5.65;;
14094;SDS011;18096;48.142;16.290;2023-12-07T02:33:33;8.35;;;5.00;;
14094;SDS011;18096;48.142;16.290;2023-12-07T02:35:58;6.40;;;5.45;;
14094;SDS011;18096;48.142;16.290;2023-12-07T02:38:25;7.00;;;5.10;;
14094;SDS011;18096;48.142;16.290;2023-12-07T02:40:52;8.43;;;5.40;;
14094;SDS011;18096;48.142;16.290;2023-12-07T02:43:19;7.57;;;5.32;;
14094;SDS011;18096;48.142;16.290;2023-12-07T02:45:46;6.95;;;5.78;;
14094;SDS011;18096;48.142;16.290;2023-12-07T02:48:13;7.75;;;5.15;;
14094;SDS011;18096;48.142;16.290;2023-12-07T02:50:39;8.35;;;5.60;;
14094;SDS011;18096;48.142;16.290;2023-12-07T02:53:04;9.20;;;5.40;;
14094;SDS011;18096;48.142;16.290;2023-12-07T02:55:30;9.93;;;5.70;;
14094;SDS011;18096;48.142;16.290;2023-12-07T02:57:56;7.73;;;5.50;;
14094;SDS011;18096;48.142;16.290;2023-12-07T03:00:21;7.72;;;4.72;;
14094;SDS011;18096;48.142;16.290;2023-12-07T03:02:47;8.07;;;5.60;;
14094;SDS011;18096;48.142;16.290;2023-12-07T03:05:13;7.87;;;6.13;;
14094;SDS011;18096;48.142;16.290;2023-12-07T03:07:38;7.60;;;4.90;;
14094;SDS011;18096;48.142;16.290;2023-12-07T03:10:04;6.70;;;5.17;;
14094;SDS011;18096;48.142;16.290;2023-12-07T03:12:30;7.93;;;5.70;;
14094;SDS011;18096;48.142;16.290;2023-12-07T03:14:56;8.17;;;5.40;;
14094;SDS011;18096;48.142;16.290;2023-12-07T03:17:22;7.87;;;5.20;;
14094;SDS011;18096;48.142;16.290;2023-12-07T03:19:47;7.15;;;5.38;;
14094;SDS011;18096;48.142;16.290;2023-12-07T03:22:13;8.95;;;6.10;;
14094;SDS011;18096;48.142;16.290;2023-12-07T03:24:39;9.27;;;5.90;;
14094;SDS011;18096;48.142;16.290;2023-12-07T03:27:08;9.87;;;5.80;;
14094;SDS011;18096;48.142;16.290;2023-12-07T03:29:34;7.10;;;5.63;;
14094;SDS011;18096;48.142;16.290;2023-12-07T03:32:00;8.45;;;5.47;;
14094;SDS011;18096;48.142;16.290;2023-12-07T03:34:25;7.40;;;5.28;;
14094;SDS011;18096;48.142;16.290;2023-12-07T03:36:51;7.97;;;5.63;;
14094;SDS011;18096;48.142;16.290;2023-12-07T03:39:17;8.88;;;6.00;;
14094;SDS011;18096;48.142;16.290;2023-12-07T03:41:50;7.78;;;5.80;;
14094;SDS011;18096;48.142;16.290;2023-12-07T03:44:16;9.30;;;5.57;;
14094;SDS011;18096;48.142;16.290;2023-12-07T03:46:42;7.70;;;5.85;;
14094;SDS011;18096;48.142;16.290;2023-12-07T03:49:08;7.53;;;5.63;;
14094;SDS011;18096;48.142;16.290;2023-12-07T03:51:33;9.80;;;5.87;;
14094;SDS011;18096;48.142;16.290;2023-12-07T03:54:01;9.05;;;5.90;;
14094;SDS011;18096;48.142;16.290;2023-12-07T03:56:28;8.27;;;6.18;;
14094;SDS011;18096;48.142;16.290;2023-12-07T03:58:55;9.77;;;7.05;;
14094;SDS011;18096;48.142;16.290;2023-12-07T04:01:22;6.82;;;5.03;;
14094;SDS011;18096;48.142;16.290;2023-12-07T04:03:49;8.25;;;6.10;;
14094;SDS011;18096;48.142;16.290;2023-12-07T04:06:15;7.03;;;5.20;;
14094;SDS011;18096;48.142;16.290;2023-12-07T04:08:41;9.13;;;6.13;;
14094;SDS011;18096;48.142;16.290;2023-12-07T04:11:07;8.18;;;5.90;;
14094;SDS011;18096;48.142;16.290;2023-12-07T04:13:33;10.95;;;6.28;;
14094;SDS011;18096;48.142;16.290;2023-12-07T04:15:58;8.45;;;5.72;;
14094;SDS011;18096;48.142;16.290;2023-12-07T04:18:24;9.10;;;6.28;;
14094;SDS011;18096;48.142;16.290;2023-12-07T04:20:50;9.47;;;6.33;;
14094;SDS011;18096;48.142;16.290;2023-12-07T04:23:15;8.73;;;6.13;;
14094;SDS011;18096;48.142;16.290;2023-12-07T04:25:41;10.85;;;6.90;;
14094;SDS011;18096;48.142;16.290;2023-12-07T04:28:07;9.77;;;6.27;;
14094;SDS011;18096;48.142;16.290;2023-12-07T04:30:32;8.73;;;5.43;;
14094;SDS011;18096;48.142;16.290;2023-12-07T04:32:58;9.23;;;5.95;;
14094;SDS011;18096;48.142;16.290;2023-12-07T04:35:23;12.00;;;7.07;;
14094;SDS011;18096;48.142;16.290;2023-12-07T04:37:49;11.57;;;6.20;;
14094;SDS011;18096;48.142;16.290;2023-12-07T04:40:15;13.10;;;6.82;;
14094;SDS011;18096;48.142;16.290;2023-12-07T04:42:40;10.23;;;6.75;;
14094;SDS011;18096;48.142;16.290;2023-12-07T04:45:06;9.25;;;5.85;;
14094;SDS011;18096;48.142;16.290;2023-12-07T04:47:32;9.82;;;5.63;;
14094;SDS011;18096;48.142;16.290;2023-12-07T04:49:58;9.77;;;6.28;;
14094;SDS011;18096;48.142;16.290;2023-12-07T04:52:24;10.05;;;6.20;;
14094;SDS011;18096;48.142;16.290;2023-12-07T04:54:50;9.02;;;6.88;;
14094;SDS011;18096;48.142;16.290;2023-12-07T04:57:15;10.70;;;6.93;;
14094;SDS011;18096;48.142;16.290;2023-12-07T04:59:41;8.98;;;5.93;;
14094;SDS011;18096;48.142;16.290;2023-12-07T05:02:11;8.93;;;5.97;;
14094;SDS011;18096;48.142;16.290;2023-12-07T05:04:38;9.30;;;6.40;;
14094;SDS011;18096;48.142;16.290;2023-12-07T05:07:04;10.10;;;6.88;;
14094;SDS011;18096;48.142;16.290;2023-12-07T05:09:30;9.30;;;5.83;;
14094;SDS011;18096;48.142;16.290;2023-12-07T05:11:56;13.10;;;7.40;;
14094;SDS011;18096;48.142;16.290;2023-12-07T05:14:21;8.80;;;6.87;;
14094;SDS011;18096;48.142;16.290;2023-12-07T05:16:48;8.63;;;5.72;;
14094;SDS011;18096;48.142;16.290;2023-12-07T05:19:17;9.83;;;6.63;;
14094;SDS011;18096;48.142;16.290;2023-12-07T05:21:50;8.60;;;6.72;;
14094;SDS011;18096;48.142;16.290;2023-12-07T05:24:18;10.93;;;7.10;;
14094;SDS011;18096;48.142;16.290;2023-12-07T05:26:45;12.65;;;6.70;;
14094;SDS011;18096;48.142;16.290;2023-12-07T05:29:11;8.43;;;6.30;;
14094;SDS011;18096;48.142;16.290;2023-12-07T05:31:37;9.80;;;7.00;;
14094;SDS011;18096;48.142;16.290;2023-12-07T05:34:03;8.90;;;6.47;;
14094;SDS011;18096;48.142;16.290;2023-12-07T05:36:28;11.50;;;7.40;;
14094;SDS011;18096;48.142;16.290;2023-12-07T05:38:54;9.97;;;6.90;;
14094;SDS011;18096;48.142;16.290;2023-12-07T05:41:20;11.60;;;7.35;;
14094;SDS011;18096;48.142;16.290;2023-12-07T05:43:46;9.43;;;6.10;;
14094;SDS011;18096;48.142;16.290;2023-12-07T05:46:11;10.73;;;6.63;;
14094;SDS011;18096;48.142;16.290;2023-12-07T05:48:37;10.00;;;6.40;;
14094;SDS011;18096;48.142;16.290;2023-12-07T05:51:03;11.03;;;6.60;;
14094;SDS011;18096;48.142;16.290;2023-12-07T05:53:29;10.07;;;6.60;;
14094;SDS011;18096;48.142;16.290;2023-12-07T05:55:57;13.60;;;7.50;;
14094;SDS011;18096;48.142;16.290;2023-12-07T05:58:23;12.52;;;7.07;;
14094;SDS011;18096;48.142;16.290;2023-12-07T06:00:49;12.02;;;6.55;;
14094;SDS011;18096;48.142;16.290;2023-12-07T06:03:15;9.45;;;6.22;;
14094;SDS011;18096;48.142;16.290;2023-12-07T06:05:41;12.65;;;6.95;;
14094;SDS011;18096;48.142;16.290;2023-12-07T06:08:07;9.15;;;5.97;;
14094;SDS011;18096;48.142;16.290;2023-12-07T06:10:33;10.73;;;6.97;;
14094;SDS011;18096;48.142;16.290;2023-12-07T06:12:59;9.48;;;6.75;;
14094;SDS011;18096;48.142;16.290;2023-12-07T06:15:26;8.50;;;6.47;;
14094;SDS011;18096;48.142;16.290;2023-12-07T06:17:52;12.50;;;6.90;;
14094;SDS011;18096;48.142;16.290;2023-12-07T06:20:19;10.02;;;6.30;;
14094;SDS011;18096;48.142;16.290;2023-12-07T06:22:45;10.13;;;6.50;;
14094;SDS011;18096;48.142;16.290;2023-12-07T06:25:11;9.18;;;6.50;;
14094;SDS011;18096;48.142;16.290;2023-12-07T06:27:37;9.65;;;6.90;;
14094;SDS011;18096;48.142;16.290;2023-12-07T06:30:03;10.48;;;6.88;;
14094;SDS011;18096;48.142;16.290;2023-12-07T06:32:32;10.95;;;6.82;;
14094;SDS011;18096;48.142;16.290;2023-12-07T06:34:58;14.77;;;7.63;;
14094;SDS011;18096;48.142;16.290;2023-12-07T06:37:23;9.32;;;6.30;;
14094;SDS011;18096;48.142;16.290;2023-12-07T06:39:49;13.73;;;7.05;;
14094;SDS011;18096;48.142;16.290;2023-12-07T06:42:15;9.52;;;6.50;;
14094;SDS011;18096;48.142;16.290;2023-12-07T06:44:48;9.57;;;6.68;;
14094;SDS011;18096;48.142;16.290;2023-12-07T06:47:17;8.30;;;6.43;;
14094;SDS011;18096;48.142;16.290;2023-12-07T06:49:43;10.05;;;7.60;;
14094;SDS011;18096;48.142;16.290;2023-12-07T06:52:10;21.88;;;10.00;;
14094;SDS011;18096;48.142;16.290;2023-12-07T06:54:36;12.23;;;7.35;;
14094;SDS011;18096;48.142;16.290;2023-12-07T06:57:03;16.10;;;7.63;;
14094;SDS011;18096;48.142;16.290;2023-12-07T06:59:29;10.40;;;7.10;;
14094;SDS011;18096;48.142;16.290;2023-12-07T07:01:55;9.65;;;6.30;;
14094;SDS011;18096;48.142;16.290;2023-12-07T07:04:20;9.77;;;7.03;;
14094;SDS011;18096;48.142;16.290;2023-12-07T07:06:46;14.93;;;8.57;;
14094;SDS011;18096;48.142;16.290;2023-12-07T07:09:12;8.80;;;6.25;;
14094;SDS011;18096;48.142;16.290;2023-12-07T07:11:38;10.85;;;7.15;;
14094;SDS011;18096;48.142;16.290;2023-12-07T07:14:03;10.80;;;6.97;;
14094;SDS011;18096;48.142;16.290;2023-12-07T07:16:29;20.05;;;10.05;;
14094;SDS011;18096;48.142;16.290;2023-12-07T07:18:55;7.55;;;6.15;;
14094;SDS011;18096;48.142;16.290;2023-12-07T07:21:21;11.18;;;6.60;;
14094;SDS011;18096;48.142;16.290;2023-12-07T07:23:47;9.57;;;5.72;;
14094;SDS011;18096;48.142;16.290;2023-12-07T07:26:13;11.02;;;6.72;;
14094;SDS011;18096;48.142;16.290;2023-12-07T07:28:42;8.90;;;6.40;;
14094;SDS011;18096;48.142;16.290;2023-12-07T07:31:08;9.38;;;6.60;;
14094;SDS011;18096;48.142;16.290;2023-12-07T07:33:34;11.37;;;6.83;;
14094;SDS011;18096;48.142;16.290;2023-12-07T07:36:00;10.18;;;6.40;;
14094;SDS011;18096;48.142;16.290;2023-12-07T07:38:25;8.45;;;6.30;;
14094;SDS011;18096;48.142;16.290;2023-12-07T07:40:51;8.57;;;5.28;;
14094;SDS011;18096;48.142;16.290;2023-12-07T07:43:17;11.13;;;6.33;;
14094;SDS011;18096;48.142;16.290;2023-12-07T07:45:43;9.73;;;6.50;;
14094;SDS011;18096;48.142;16.290;2023-12-07T07:48:09;8.15;;;5.90;;
14094;SDS011;18096;48.142;16.290;2023-12-07T07:50:34;11.52;;;6.78;;
14094;SDS011;18096;48.142;16.290;2023-12-07T07:53:01;12.32;;;6.38;;
14094;SDS011;18096;48.142;16.290;2023-12-07T07:55:28;11.10;;;6.30;;
14094;SDS011;18096;48.142;16.290;2023-12-07T07:57:54;12.23;;;7.07;;
14094;SDS011;18096;48.142;16.290;2023-12-07T08:00:19;12.65;;;7.30;;
14094;SDS011;18096;48.142;16.290;2023-12-07T08:02:46;10.10;;;6.35;;
14094;SDS011;18096;48.142;16.290;2023-12-07T08:05:12;11.52;;;6.90;;
14094;SDS011;18096;48.142;16.290;2023-12-07T08:07:38;12.13;;;7.05;;
14094;SDS011;18096;48.142;16.290;2023-12-07T08:10:05;12.68;;;7.00;;
14094;SDS011;18096;48.142;16.290;2023-12-07T08:12:31;10.75;;;6.80;;
14094;SDS011;18096;48.142;16.290;2023-12-07T08:14:58;14.88;;;6.78;;
14094;SDS011;18096;48.142;16.290;2023-12-07T08:17:23;8.77;;;7.23;;
14094;SDS011;18096;48.142;16.290;2023-12-07T08:19:51;17.95;;;7.43;;
14094;SDS011;18096;48.142;16.290;2023-12-07T08:22:17;11.23;;;6.72;;
14094;SDS011;18096;48.142;16.290;2023-12-07T08:24:42;9.93;;;6.63;;
14094;SDS011;18096;48.142;16.290;2023-12-07T08:27:08;13.38;;;7.78;;
14094;SDS011;18096;48.142;16.290;2023-12-07T08:29:34;9.87;;;6.47;;
14094;SDS011;18096;48.142;16.290;2023-12-07T08:32:01;10.02;;;7.13;;
14094;SDS011;18096;48.142;16.290;2023-12-07T08:34:27;12.25;;;7.22;;
14094;SDS011;18096;48.142;16.290;2023-12-07T08:36:53;12.23;;;6.82;;
14094;SDS011;18096;48.142;16.290;2023-12-07T08:39:18;10.70;;;6.72;;
14094;SDS011;18096;48.142;16.290;2023-12-07T08:41:44;10.30;;;6.67;;
14094;SDS011;18096;48.142;16.290;2023-12-07T08:44:09;10.37;;;7.20;;
14094;SDS011;18096;48.142;16.290;2023-12-07T08:46:36;10.60;;;6.83;;
14094;SDS011;18096;48.142;16.290;2023-12-07T08:49:02;10.90;;;6.67;;
14094;SDS011;18096;48.142;16.290;2023-12-07T08:51:28;11.93;;;6.60;;
14094;SDS011;18096;48.142;16.290;2023-12-07T08:53:54;12.25;;;6.40;;
14094;SDS011;18096;48.142;16.290;2023-12-07T08:56:20;10.95;;;7.28;;
14094;SDS011;18096;48.142;16.290;2023-12-07T08:58:45;12.52;;;7.50;;
14094;SDS011;18096;48.142;16.290;2023-12-07T09:01:11;9.40;;;6.60;;
14094;SDS011;18096;48.142;16.290;2023-12-07T09:03:37;10.87;;;7.00;;
14094;SDS011;18096;48.142;16.290;2023-12-07T09:06:03;9.50;;;6.70;;
14094;SDS011;18096;48.142;16.290;2023-12-07T09:08:30;9.00;;;6.50;;
14094;SDS011;18096;48.142;16.290;2023-12-07T09:10:56;13.33;;;6.80;;
14094;SDS011;18096;48.142;16.290;2023-12-07T09:13:21;9.75;;;6.00;;
14094;SDS011;18096;48.142;16.290;2023-12-07T09:15:47;8.23;;;5.70;;
14094;SDS011;18096;48.142;16.290;2023-12-07T09:18:12;9.70;;;6.67;;
14094;SDS011;18096;48.142;16.290;2023-12-07T09:20:41;11.67;;;6.43;;
14094;SDS011;18096;48.142;16.290;2023-12-07T09:23:15;9.27;;;6.20;;
14094;SDS011;18096;48.142;16.290;2023-12-07T09:25:41;10.70;;;6.53;;
14094;SDS011;18096;48.142;16.290;2023-12-07T09:28:07;8.63;;;6.10;;
14094;SDS011;18096;48.142;16.290;2023-12-07T09:30:33;9.75;;;6.00;;
14094;SDS011;18096;48.142;16.290;2023-12-07T09:32:59;14.73;;;6.43;;
14094;SDS011;18096;48.142;16.290;2023-12-07T09:35:27;12.90;;;7.20;;
14094;SDS011;18096;48.142;16.290;2023-12-07T09:37:53;9.82;;;6.22;;
14094;SDS011;18096;48.142;16.290;2023-12-07T09:43:03;10.10;;;6.53;;
14094;SDS011;18096;48.142;16.290;2023-12-07T09:45:29;7.95;;;5.90;;
14094;SDS011;18096;48.142;16.290;2023-12-07T09:47:54;10.82;;;6.65;;
14094;SDS011;18096;48.142;16.290;2023-12-07T09:50:21;10.30;;;6.20;;
14094;SDS011;18096;48.142;16.290;2023-12-07T09:52:49;13.18;;;6.82;;
14094;SDS011;18096;48.142;16.290;2023-12-07T09:55:16;14.13;;;7.20;;
14094;SDS011;18096;48.142;16.290;2023-12-07T09:57:42;8.65;;;6.57;;
14094;SDS011;18096;48.142;16.290;2023-12-07T10:00:10;9.83;;;6.23;;
14094;SDS011;18096;48.142;16.290;2023-12-07T10:02:39;9.82;;;6.30;;
14094;SDS011;18096;48.142;16.290;2023-12-07T10:05:09;9.05;;;5.88;;
14094;SDS011;18096;48.142;16.290;2023-12-07T10:07:43;9.98;;;6.68;;
14094;SDS011;18096;48.142;16.290;2023-12-07T10:10:12;11.40;;;6.40;;
14094;SDS011;18096;48.142;16.290;2023-12-07T10:12:45;8.15;;;6.97;;
14094;SDS011;18096;48.142;16.290;2023-12-07T10:15:18;8.68;;;6.28;;
14094;SDS011;18096;48.142;16.290;2023-12-07T10:17:56;10.60;;;6.53;;
14094;SDS011;18096;48.142;16.290;2023-12-07T10:20:24;12.40;;;7.03;;
14094;SDS011;18096;48.142;16.290;2023-12-07T10:23:03;10.30;;;6.70;;
14094;SDS011;18096;48.142;16.290;2023-12-07T10:25:35;13.13;;;6.97;;
14094;SDS011;18096;48.142;16.290;2023-12-07T10:28:07;10.00;;;6.40;;
14094;SDS011;18096;48.142;16.290;2023-12-07T10:30:36;10.35;;;6.57;;
14094;SDS011;18096;48.142;16.290;2023-12-07T10:33:04;14.25;;;7.75;;
14094;SDS011;18096;48.142;16.290;2023-12-07T10:35:33;11.43;;;6.68;;
14094;SDS011;18096;48.142;16.290;2023-12-07T10:38:04;14.30;;;7.00;;
14094;SDS011;18096;48.142;16.290;2023-12-07T10:40:30;10.77;;;7.60;;
14094;SDS011;18096;48.142;16.290;2023-12-07T10:42:57;9.95;;;6.22;;
14094;SDS011;18096;48.142;16.290;2023-12-07T10:45:26;9.13;;;6.63;;
14094;SDS011;18096;48.142;16.290;2023-12-07T10:47:55;10.57;;;6.13;;
14094;SDS011;18096;48.142;16.290;2023-12-07T10:50:30;8.83;;;6.13;;
14094;SDS011;18096;48.142;16.290;2023-12-07T10:52:59;12.63;;;6.60;;
14094;SDS011;18096;48.142;16.290;2023-12-07T10:55:45;12.35;;;6.72;;
14094;SDS011;18096;48.142;16.290;2023-12-07T10:58:17;12.55;;;7.50;;
14094;SDS011;18096;48.142;16.290;2023-12-07T11:00:44;13.15;;;7.22;;
14094;SDS011;18096;48.142;16.290;2023-12-07T11:03:13;11.73;;;6.82;;
14094;SDS011;18096;48.142;16.290;2023-12-07T11:05:41;12.32;;;7.30;;
14094;SDS011;18096;48.142;16.290;2023-12-07T11:08:09;12.40;;;6.65;;
14094;SDS011;18096;48.142;16.290;2023-12-07T11:10:39;11.45;;;7.15;;
14094;SDS011;18096;48.142;16.290;2023-12-07T11:13:27;10.75;;;6.60;;
14094;SDS011;18096;48.142;16.290;2023-12-07T11:15:56;12.18;;;6.50;;
14094;SDS011;18096;48.142;16.290;2023-12-07T11:18:24;9.90;;;7.22;;
14094;SDS011;18096;48.142;16.290;2023-12-07T11:20:54;14.13;;;7.13;;
14094;SDS011;18096;48.142;16.290;2023-12-07T11:23:20;11.47;;;7.47;;
14094;SDS011;18096;48.142;16.290;2023-12-07T11:25:47;11.90;;;6.70;;
14094;SDS011;18096;48.142;16.290;2023-12-07T11:28:15;11.57;;;7.57;;
14094;SDS011;18096;48.142;16.290;2023-12-07T11:30:42;12.18;;;6.90;;
14094;SDS011;18096;48.142;16.290;2023-12-07T11:33:11;9.48;;;6.60;;
14094;SDS011;18096;48.142;16.290;2023-12-07T11:38:27;10.73;;;6.50;;
14094;SDS011;18096;48.142;16.290;2023-12-07T11:40:54;14.27;;;7.32;;
14094;SDS011;18096;48.142;16.290;2023-12-07T11:45:58;12.57;;;6.75;;
14094;SDS011;18096;48.142;16.290;2023-12-07T11:48:24;9.25;;;6.85;;
14094;SDS011;18096;48.142;16.290;2023-12-07T11:50:54;10.40;;;7.30;;
14094;SDS011;18096;48.142;16.290;2023-12-07T11:53:24;9.13;;;6.63;;
14094;SDS011;18096;48.142;16.290;2023-12-07T11:55:51;13.63;;;7.93;;
14094;SDS011;18096;48.142;16.290;2023-12-07T11:58:17;12.10;;;6.60;;
14094;SDS011;18096;48.142;16.290;2023-12-07T12:00:43;13.73;;;7.07;;
14094;SDS011;18096;48.142;16.290;2023-12-07T12:03:11;10.07;;;6.30;;
14094;SDS011;18096;48.142;16.290;2023-12-07T12:05:40;10.20;;;7.15;;
14094;SDS011;18096;48.142;16.290;2023-12-07T12:08:06;12.35;;;7.03;;
14094;SDS011;18096;48.142;16.290;2023-12-07T12:10:32;11.87;;;7.57;;
14094;SDS011;18096;48.142;16.290;2023-12-07T12:13:01;13.65;;;8.00;;
14094;SDS011;18096;48.142;16.290;2023-12-07T12:15:29;12.60;;;6.60;;
14094;SDS011;18096;48.142;16.290;2023-12-07T12:17:56;10.30;;;6.45;;
14094;SDS011;18096;48.142;16.290;2023-12-07T12:20:22;8.50;;;6.30;;
14094;SDS011;18096;48.142;16.290;2023-12-07T12:22:49;11.35;;;7.25;;
14094;SDS011;18096;48.142;16.290;2023-12-07T12:25:18;10.10;;;6.13;;
14094;SDS011;18096;48.142;16.290;2023-12-07T12:27:46;8.57;;;5.90;;
14094;SDS011;18096;48.142;16.290;2023-12-07T12:30:12;14.75;;;7.28;;
14094;SDS011;18096;48.142;16.290;2023-12-07T12:32:45;12.50;;;7.10;;
14094;SDS011;18096;48.142;16.290;2023-12-07T12:35:12;11.10;;;6.93;;
14094;SDS011;18096;48.142;16.290;2023-12-07T12:37:40;10.63;;;6.43;;
14094;SDS011;18096;48.142;16.290;2023-12-07T12:40:10;10.90;;;7.18;;
14094;SDS011;18096;48.142;16.290;2023-12-07T12:42:36;10.07;;;6.97;;
14094;SDS011;18096;48.142;16.290;2023-12-07T12:45:03;9.98;;;6.75;;
14094;SDS011;18096;48.142;16.290;2023-12-07T12:47:49;9.30;;;6.57;;
14094;SDS011;18096;48.142;16.290;2023-12-07T12:53:02;8.98;;;6.60;;
14094;SDS011;18096;48.142;16.290;2023-12-07T12:55:33;11.05;;;6.75;;
14094;SDS011;18096;48.142;16.290;2023-12-07T12:58:00;10.27;;;6.80;;
14094;SDS011;18096;48.142;16.290;2023-12-07T13:00:28;11.80;;;6.90;;
14094;SDS011;18096;48.142;16.290;2023-12-07T13:02:54;10.00;;;6.60;;
14094;SDS011;18096;48.142;16.290;2023-12-07T13:05:20;10.05;;;6.28;;
14094;SDS011;18096;48.142;16.290;2023-12-07T13:07:46;13.25;;;6.70;;
14094;SDS011;18096;48.142;16.290;2023-12-07T13:10:14;12.57;;;6.88;;
14094;SDS011;18096;48.142;16.290;2023-12-07T13:12:40;12.98;;;7.28;;
14094;SDS011;18096;48.142;16.290;2023-12-07T13:15:06;14.60;;;7.50;;
14094;SDS011;18096;48.142;16.290;2023-12-07T13:17:32;13.73;;;7.55;;
14094;SDS011;18096;48.142;16.290;2023-12-07T13:19:57;12.98;;;7.50;;
14094;SDS011;18096;48.142;16.290;2023-12-07T13:22:23;18.55;;;7.88;;
14094;SDS011;18096;48.142;16.290;2023-12-07T13:24:49;10.70;;;6.93;;
14094;SDS011;18096;48.142;16.290;2023-12-07T13:27:15;10.73;;;7.32;;
14094;SDS011;18096;48.142;16.290;2023-12-07T13:29:41;10.50;;;6.38;;
14094;SDS011;18096;48.142;16.290;2023-12-07T13:32:06;9.45;;;6.93;;
14094;SDS011;18096;48.142;16.290;2023-12-07T13:34:32;9.85;;;6.10;;
14094;SDS011;18096;48.142;16.290;2023-12-07T13:36:58;12.05;;;7.90;;
14094;SDS011;18096;48.142;16.290;2023-12-07T13:39:24;11.55;;;6.90;;
14094;SDS011;18096;48.142;16.290;2023-12-07T13:41:51;13.20;;;8.00;;
14094;SDS011;18096;48.142;16.290;2023-12-07T13:44:17;12.20;;;7.22;;
14094;SDS011;18096;48.142;16.290;2023-12-07T13:46:43;14.20;;;7.33;;
14094;SDS011;18096;48.142;16.290;2023-12-07T13:49:09;12.73;;;7.53;;
14094;SDS011;18096;48.142;16.290;2023-12-07T13:51:37;8.98;;;6.65;;
14094;SDS011;18096;48.142;16.290;2023-12-07T13:54:03;11.88;;;7.68;;
14094;SDS011;18096;48.142;16.290;2023-12-07T13:56:28;12.43;;;7.25;;
14094;SDS011;18096;48.142;16.290;2023-12-07T13:58:54;11.40;;;6.60;;
14094;SDS011;18096;48.142;16.290;2023-12-07T14:01:20;11.00;;;7.70;;
14094;SDS011;18096;48.142;16.290;2023-12-07T14:03:46;12.30;;;7.30;;
14094;SDS011;18096;48.142;16.290;2023-12-07T14:06:11;12.23;;;7.27;;
14094;SDS011;18096;48.142;16.290;2023-12-07T14:08:45;12.85;;;7.38;;
14094;SDS011;18096;48.142;16.290;2023-12-07T14:11:11;11.17;;;7.03;;
14094;SDS011;18096;48.142;16.290;2023-12-07T14:13:37;11.20;;;6.63;;
14094;SDS011;18096;48.142;16.290;2023-12-07T14:16:03;9.77;;;6.80;;
14094;SDS011;18096;48.142;16.290;2023-12-07T14:18:29;13.25;;;7.85;;
14094;SDS011;18096;48.142;16.290;2023-12-07T14:20:55;14.27;;;8.60;;
14094;SDS011;18096;48.142;16.290;2023-12-07T14:23:21;12.63;;;7.23;;
14094;SDS011;18096;48.142;16.290;2023-12-07T14:25:48;11.18;;;7.30;;
14094;SDS011;18096;48.142;16.290;2023-12-07T14:28:16;14.40;;;7.82;;
14094;SDS011;18096;48.142;16.290;2023-12-07T14:30:42;14.57;;;8.13;;
14094;SDS011;18096;48.142;16.290;2023-12-07T14:33:08;15.07;;;8.03;;
14094;SDS011;18096;48.142;16.290;2023-12-07T14:35:33;17.52;;;7.88;;
14094;SDS011;18096;48.142;16.290;2023-12-07T14:37:59;14.93;;;8.03;;
14094;SDS011;18096;48.142;16.290;2023-12-07T14:40:24;12.60;;;8.40;;